Time;durP1;ratioP1;P1;durP2;ratioP2;P2;SDS_P1;SDS_P2;PMS_P1;PMS_P2;Temp;Humidity;BMP_temperature;BMP_pressure;BME280_temperature;BME280_humidity;BME280_pressure;Samples;Min_cycle;Max_cycle;Signal;HPM_P1;HPM_P2
2022/08/22 03:02:34;;;;;;;6.20;2.70;;;;;;;22.94;48.04;101732.75;5563259;23;20043;-83
2022/08/22 05:16:05;;;;;;;16.48;4.35;;;;;;;23.07;48.21;101746.56;4917422;29;20048;-79
2022/08/22 05:18:40;;;;;;;9.38;3.20;;;;;;;22.97;48.47;101743.19;4927042;29;20056;-78
2022/08/22 06:03:00;;;;;;;9.38;3.90;;;;;;;24.05;46.38;101764.78;4972065;23;20427;-87
2022/08/22 06:05:29;;;;;;;12.63;3.67;;;;;;;24.22;45.63;101763.50;4897788;29;20052;-87
2022/08/22 06:10:56;;;;;;;11.95;3.90;;;;;;;24.46;45.44;101765.59;4899047;29;21194;-89
2022/08/22 06:13:31;;;;;;;11.52;3.67;;;;;;;24.57;44.94;101767.09;4897852;29;20079;-88
2022/08/22 06:16:15;;;;;;;9.38;3.70;;;;;;;24.66;45.17;101765.16;4899861;29;20051;-88
2022/08/22 06:18:44;;;;;;;11.43;3.33;;;;;;;24.80;44.81;101758.63;4889577;29;21175;-90
2022/08/22 06:23:48;;;;;;;;;;;;;;;24.77;45.05;101757.84;4914422;29;20060;-92
2022/08/22 06:26:17;;;;;;;22.50;4.80;;;;;;;24.66;45.42;101762.50;4915415;29;19970;-89
2022/08/22 06:28:46;;;;;;;20.33;4.40;;;;;;;24.64;45.27;101762.53;4897116;29;20055;-90
2022/08/22 06:38:59;;;;;;;18.15;3.97;;;;;;;24.42;46.07;101755.13;5085433;28;20174;-89
2022/08/22 06:43:58;;;;;;;19.05;6.38;;;;;;;24.23;46.70;101761.72;5085663;28;20490;-91
2022/08/22 08:18:20;;;;;;;12.57;3.42;;;;;;;23.58;48.61;101714.91;4966658;29;20070;-81
2022/08/22 08:20:58;;;;;;;12.57;3.20;;;;;;;23.60;49.18;101721.88;4987616;28;20109;-81
2022/08/22 08:23:46;;;;;;;14.52;3.45;;;;;;;23.73;48.67;101724.25;4981668;28;20050;-80
2022/08/22 08:26:23;;;;;;;10.10;2.90;;;;;;;23.92;48.13;101725.59;4985351;28;20034;-80
2022/08/22 08:31:30;;;;;;;12.98;3.13;;;;;;;23.74;48.44;101711.06;4996030;28;20058;-82
2022/08/22 08:37:37;;;;;;;15.30;3.40;;;;;;;24.02;47.76;101718.41;4935877;28;20075;-83
2022/08/22 08:52:22;;;;;;;13.15;3.58;;;;;;;23.77;48.21;101702.28;4995380;28;20122;-83
2022/08/22 08:58:33;;;;;;;12.65;3.17;;;;;;;23.93;48.09;101710.69;4985970;28;20098;-81
2022/08/22 09:01:10;;;;;;;10.00;3.08;;;;;;;23.93;47.73;101706.31;4958737;28;20393;-82
2022/08/22 09:06:28;;;;;;;10.68;2.58;;;;;;;24.01;47.61;101712.25;4989739;28;20063;-81
2022/08/22 09:12:06;;;;;;;10.55;2.60;;;;;;;23.95;48.14;101708.91;4987012;28;20077;-78
2022/08/22 09:14:40;;;;;;;8.20;2.75;;;;;;;23.93;48.16;101702.81;4980815;28;20505;-80
2022/08/22 09:20:11;;;;;;;13.15;3.40;;;;;;;23.83;47.81;101701.31;4977893;28;20201;-80
2022/08/22 09:22:57;;;;;;;10.63;2.80;;;;;;;23.86;47.52;101701.22;4978982;28;20051;-80
2022/08/22 09:25:26;;;;;;;11.18;3.20;;;;;;;23.85;47.58;101694.25;4964264;28;20050;-80
2022/08/22 09:28:12;;;;;;;11.43;3.28;;;;;;;23.84;47.27;101697.75;4979814;28;20133;-80
2022/08/22 09:31:11;;;;;;;10.35;3.08;;;;;;;23.80;47.18;101702.22;4979171;28;20058;-80
2022/08/22 09:34:15;;;;;;;9.35;2.60;;;;;;;23.74;46.58;101687.44;4961151;28;20053;-80
2022/08/22 09:36:47;;;;;;;;;;;;;;;23.73;46.59;101685.69;4946030;28;20059;-80
2022/08/22 09:39:19;;;;;;;10.52;2.75;;;;;;;23.70;46.19;101691.00;4959793;29;19918;-81
2022/08/22 09:41:59;;;;;;;7.82;2.60;;;;;;;23.70;46.63;101682.28;4943820;28;20051;-81
2022/08/22 09:47:18;;;;;;;11.43;3.10;;;;;;;23.73;46.28;101682.19;4978726;28;20078;-80
2022/08/22 09:50:02;;;;;;;13.35;3.20;;;;;;;23.74;46.08;101681.31;4978701;28;20306;-80
2022/08/22 09:52:43;;;;;;;10.85;2.90;;;;;;;23.76;46.05;101674.28;4978350;28;20043;-79
2022/08/22 09:58:10;;;;;;;9.45;2.78;;;;;;;23.76;46.10;101676.91;4981591;28;20082;-80
2022/08/22 10:00:55;;;;;;;9.10;2.97;;;;;;;23.70;45.83;101670.00;4962948;28;20050;-80
2022/08/22 10:03:24;;;;;;;9.82;2.65;;;;;;;23.75;46.09;101672.50;4963923;28;20085;-80
2022/08/22 12:26:26;;;;;;;8.85;3.05;;;;;;;24.46;43.79;101618.25;6042680;23;20107;31
2022/08/22 12:37:07;;;;;;;6.50;2.20;;;;;;;25.18;42.36;101621.56;4921981;29;20159;-77
2022/08/22 12:39:47;;;;;;;5.95;2.15;;;;;;;25.00;42.71;101615.94;4928115;29;20051;-79
2022/08/22 12:48:15;;;;;;;4.38;1.80;;;;;;;24.74;43.43;101603.50;4922252;29;20842;-79
2022/08/22 12:51:16;;;;;;;5.80;2.30;;;;;;;24.63;44.32;101595.88;4891451;29;20099;-79
2022/08/22 12:54:14;;;;;;;5.68;2.35;;;;;;;24.56;44.16;101598.72;4885704;29;20059;-78
2022/08/22 12:56:51;;;;;;;8.32;2.50;;;;;;;24.51;44.37;101595.34;4884916;29;20060;-79
2022/08/22 13:02:10;;;;;;;6.30;2.10;;;;;;;24.55;44.46;101591.75;4901379;29;20041;-78
2022/08/22 13:04:44;;;;;;;6.53;2.30;;;;;;;24.58;44.19;101579.34;4883112;29;20100;-79
2022/08/22 13:10:11;;;;;;;5.72;2.30;;;;;;;24.73;43.86;101579.84;4905126;29;20056;-79
2022/08/22 13:12:47;;;;;;;11.00;2.85;;;;;;;24.70;42.30;101578.16;4904389;29;20088;-79
2022/08/22 13:17:52;;;;;;;7.72;2.72;;;;;;;24.55;42.32;101568.91;4912983;29;20089;-80
2022/08/22 13:22:52;;;;;;;9.88;2.70;;;;;;;24.43;40.98;101570.09;4912738;29;21205;-80
2022/08/22 13:27:56;;;;;;;11.60;3.00;;;;;;;24.55;39.75;101570.69;4905540;29;20048;-78
2022/08/22 13:33:00;;;;;;;11.40;3.00;;;;;;;24.68;40.56;101558.06;4896876;29;20045;-79
2022/08/22 13:37:57;;;;;;;6.35;2.65;;;;;;;24.57;40.89;101553.09;4903674;29;20112;-78
2022/08/22 13:43:02;;;;;;;9.63;3.28;;;;;;;24.53;40.83;101547.03;4901201;29;20504;-79
2022/08/22 13:45:29;;;;;;;8.57;3.38;;;;;;;24.61;41.00;101552.97;4883750;29;20052;-78
2022/08/22 13:48:07;;;;;;;8.52;2.83;;;;;;;24.56;41.10;101551.34;4902033;29;20052;-79
2022/08/22 13:50:55;;;;;;;13.18;3.75;;;;;;;24.50;41.02;101546.25;4879422;29;20492;-79
2022/08/22 13:56:00;;;;;;;7.22;2.72;;;;;;;24.47;40.89;101547.16;4895456;29;20065;-79
2022/08/22 14:01:21;;;;;;;9.68;3.20;;;;;;;24.45;40.87;101543.72;4890155;29;21210;-79
2022/08/22 14:03:59;;;;;;;8.68;2.95;;;;;;;24.42;41.19;101542.03;4894514;29;20096;-79
2022/08/22 14:08:56;;;;;;;10.60;3.40;;;;;;;24.39;40.52;101541.28;4899443;29;20068;-79
2022/08/22 14:14:01;;;;;;;10.02;3.00;;;;;;;24.40;39.95;101548.25;4897535;29;20048;-79
2022/08/22 14:16:32;;;;;;;12.43;3.28;;;;;;;24.42;40.46;101541.19;4885018;29;20120;-79
2022/08/22 14:19:06;;;;;;;7.30;2.80;;;;;;;24.38;40.98;101545.66;4881761;29;20440;-79
2022/08/22 14:21:32;;;;;;;8.93;3.17;;;;;;;24.39;41.19;101547.41;4882468;29;20143;-78
2022/08/22 14:24:04;;;;;;;9.30;3.13;;;;;;;24.36;41.12;101534.31;4899287;29;20083;-80
2022/08/22 14:26:37;;;;;;;10.83;3.23;;;;;;;24.35;40.25;101537.84;4882788;29;20504;-78
2022/08/22 14:29:10;;;;;;;8.18;2.83;;;;;;;24.36;40.34;101533.44;4882280;29;20045;-80
2022/08/22 14:31:36;;;;;;;7.45;2.72;;;;;;;24.43;39.87;101533.25;4896475;29;20124;-78
2022/08/22 14:34:13;;;;;;;8.70;2.78;;;;;;;24.51;40.29;101525.16;4882593;29;20052;-75
2022/08/22 14:37:22;;;;;;;9.18;2.90;;;;;;;24.52;40.32;101529.53;4864631;29;20052;-76
2022/08/22 14:39:56;;;;;;;9.75;3.00;;;;;;;24.56;40.29;101527.66;4895654;29;20143;-76
2022/08/22 14:45:18;;;;;;;9.02;2.90;;;;;;;24.49;40.09;101526.97;4896630;29;20052;-77
2022/08/22 14:48:14;;;;;;;11.10;3.15;;;;;;;24.58;40.39;101517.97;4878978;29;20507;-78
2022/08/22 14:51:04;;;;;;;13.88;3.50;;;;;;;24.63;40.71;101523.97;4900998;29;20127;-78
2022/08/22 14:53:40;;;;;;;9.45;2.70;;;;;;;24.63;40.65;101521.34;4898028;29;20056;-78
2022/08/22 14:56:15;;;;;;;9.25;3.30;;;;;;;24.59;40.43;101527.59;4837956;29;1336776;-78
2022/08/22 14:58:54;;;;;;;13.40;2.58;;;;;;;24.59;40.39;101523.19;4901121;29;20048;-79
2022/08/22 15:01:26;;;;;;;10.77;2.58;;;;;;;24.59;41.18;101522.34;4909859;29;20044;-80
2022/08/22 15:04:23;;;;;;;8.63;2.85;;;;;;;24.62;40.81;101520.47;4888368;29;20056;-79
2022/08/22 15:06:55;;;;;;;9.43;2.40;;;;;;;24.64;40.70;101517.78;4874603;29;20044;-80
2022/08/22 15:11:52;;;;;;;4.75;2.13;;;;;;;24.66;41.01;101513.34;4905187;29;20105;-79
2022/08/22 15:14:26;;;;;;;4.60;2.10;;;;;;;24.66;41.52;101508.09;4876998;29;20048;-79
2022/08/22 15:17:05;;;;;;;5.35;2.05;;;;;;;24.66;41.46;101500.19;4887158;29;20143;-80
2022/08/22 15:19:44;;;;;;;6.32;2.30;;;;;;;24.67;41.66;101501.03;4871047;29;20053;-80
2022/08/22 15:22:17;;;;;;;6.93;2.47;;;;;;;24.67;41.49;101501.91;4870829;29;20056;-81
2022/08/22 15:34:26;;;;;;;4.63;2.13;;;;;;;24.68;41.75;101497.53;5177812;23;20519;-82
2022/08/22 15:37:16;;;;;;;5.45;2.15;;;;;;;24.68;41.94;101501.00;4909009;29;20073;-80
2022/08/22 15:42:57;;;;;;;7.00;2.20;;;;;;;24.68;41.68;101490.47;4936137;29;20092;-80
2022/08/22 15:48:26;;;;;;;7.72;2.10;;;;;;;24.70;41.96;101485.19;5387928;23;20064;-81
2022/08/22 15:50:57;;;;;;;7.07;2.38;;;;;;;24.70;41.75;101478.16;4898581;29;20057;-80
2022/08/22 16:04:13;;;;;;;5.70;2.30;;;;;;;24.70;42.36;101462.34;5023474;23;20072;-84
2022/08/22 17:23:59;;;;;;;9.23;2.80;;;;;;;24.32;43.84;101466.91;5209914;23;20055;-85
2022/08/22 17:31:17;;;;;;;9.60;3.70;;;;;;;24.14;43.25;101464.78;5348980;23;20033;-74
2022/08/22 17:34:14;;;;;;;13.20;3.60;;;;;;;24.03;43.15;101465.06;4895178;29;20247;-78
2022/08/22 17:37:07;;;;;;;14.05;3.63;;;;;;;23.95;43.85;101467.03;4917435;29;20134;-79
2022/08/22 17:58:14;;;;;;;10.88;3.08;;;;;;;23.76;45.13;101474.56;4911137;29;20049;-80
2022/08/22 18:07:21;;;;;;;8.02;3.30;;;;;;;23.85;45.15;101476.94;5804976;23;20030;31
2022/08/22 18:16:05;;;;;;;7.45;3.15;;;;;;;23.78;45.04;101473.63;5222339;23;20068;-79
2022/08/22 18:18:37;;;;;;;5.72;2.78;;;;;;;23.83;45.07;101470.00;4901475;29;20052;-80
2022/08/22 18:55:27;;;;;;;9.70;3.70;;;;;;;23.25;47.05;101501.13;5193006;23;20076;-83
2022/08/22 18:58:15;;;;;;;12.23;3.58;;;;;;;23.30;46.90;101489.66;4901653;29;20064;-79
2022/08/22 19:01:05;;;;;;;11.77;3.42;;;;;;;23.30;47.07;101500.16;4880165;29;20037;-78
2022/08/22 19:04:18;;;;;;;10.07;3.40;;;;;;;23.39;46.68;101501.69;4881249;29;20063;-79
2022/08/22 20:12:26;;;;;;;12.30;3.92;;;;;;;22.97;48.15;101507.84;4910281;29;20059;-80
2022/08/22 20:14:54;;;;;;;12.20;3.70;;;;;;;22.92;48.72;101503.59;4902928;29;20056;-78
2022/08/22 20:17:25;;;;;;;10.27;3.45;;;;;;;23.16;48.04;101503.06;4921302;29;20055;-78
2022/08/22 20:20:00;;;;;;;13.07;3.70;;;;;;;23.26;48.29;101503.75;4901567;29;20143;-79
2022/08/22 20:25:10;;;;;;;9.35;3.55;;;;;;;22.83;49.69;101516.91;4910169;29;20692;-79
2022/08/22 20:27:40;;;;;;;11.48;3.58;;;;;;;22.56;50.61;101514.81;4909424;29;20131;-78
2022/08/22 20:30:14;;;;;;;10.15;3.72;;;;;;;22.67;50.41;101506.72;4904929;29;20139;-79
2022/08/22 20:33:00;;;;;;;14.77;3.95;;;;;;;22.76;50.30;101503.91;4884736;29;20056;-79
2022/08/22 20:38:13;;;;;;;11.52;3.80;;;;;;;22.80;50.41;101505.56;4927731;29;20104;-79
2022/08/22 20:41:08;;;;;;;9.27;3.60;;;;;;;22.87;50.04;101501.06;4927414;29;20052;-79
2022/08/22 20:43:54;;;;;;;8.52;3.72;;;;;;;22.79;50.86;101502.97;4896138;29;20130;-78
2022/08/22 20:48:54;;;;;;;10.27;3.90;;;;;;;22.73;51.33;101501.34;4917758;29;20263;-78
2022/08/22 20:51:23;;;;;;;9.35;3.92;;;;;;;22.71;51.58;101500.53;4888559;29;20060;-78
2022/08/22 20:53:54;;;;;;;9.57;3.60;;;;;;;23.15;49.99;101493.47;4899821;29;20060;-77
2022/08/22 20:58:50;;;;;;;8.10;3.42;;;;;;;23.66;48.62;101494.03;4914731;29;20060;-77
2022/08/22 21:01:17;;;;;;;11.00;3.47;;;;;;;23.77;47.82;101490.28;4868993;29;20091;-77
2022/08/22 21:03:49;;;;;;;10.48;3.53;;;;;;;23.84;47.63;101488.34;4867652;29;20062;-77
2022/08/22 21:11:50;;;;;;;10.13;3.97;;;;;;;23.90;47.80;101490.81;4914877;29;20132;-77
2022/08/22 21:14:22;;;;;;;9.38;3.45;;;;;;;23.92;47.58;101485.53;4899776;29;20052;-78
2022/08/22 21:16:47;;;;;;;8.40;3.50;;;;;;;23.92;47.83;101483.75;4898133;29;20159;-76
2022/08/22 21:19:19;;;;;;;12.18;3.33;;;;;;;23.94;47.35;101481.09;4895311;29;20079;-78
2022/08/22 21:21:44;;;;;;;8.48;3.55;;;;;;;23.95;47.50;101485.44;4903797;29;20067;-76
2022/08/22 21:24:10;;;;;;;11.38;3.78;;;;;;;23.95;47.51;101486.34;4882041;29;20139;-76
2022/08/22 21:26:46;;;;;;;10.27;3.30;;;;;;;23.96;47.64;101484.56;4860743;29;20111;-77
2022/08/22 21:29:12;;;;;;;10.48;3.05;;;;;;;23.97;47.45;101486.25;4920115;29;20467;-77
2022/08/22 21:31:47;;;;;;;11.25;3.63;;;;;;;23.96;47.79;101484.56;4900985;29;20040;-77
2022/08/22 21:34:18;;;;;;;7.47;3.83;;;;;;;23.97;47.69;101487.13;4903097;29;20062;-77
2022/08/22 21:36:47;;;;;;;9.90;3.72;;;;;;;23.97;47.44;101487.13;4898667;29;20059;-78
2022/08/22 21:41:59;;;;;;;8.35;3.38;;;;;;;23.98;47.26;101480.97;4918730;29;21246;-78
2022/08/22 21:46:51;;;;;;;8.55;3.70;;;;;;;23.98;47.18;101475.72;4914929;29;20075;-77
2022/08/22 21:51:51;;;;;;;10.05;3.58;;;;;;;23.98;47.33;101478.34;4905031;29;20067;-77
2022/08/22 21:56:53;;;;;;;7.55;3.10;;;;;;;23.99;47.33;101479.19;4913909;29;20056;-77
2022/08/22 21:59:20;;;;;;;7.70;3.20;;;;;;;23.99;47.09;101479.19;4898308;29;20046;-77
2022/08/22 22:01:46;;;;;;;10.30;3.70;;;;;;;24.00;47.00;101480.94;4895285;29;20078;-76
2022/08/22 22:04:12;;;;;;;9.77;3.47;;;;;;;24.00;46.79;101480.94;4882863;29;20032;-77
2022/08/22 22:06:38;;;;;;;6.05;3.25;;;;;;;23.99;46.86;101480.06;4880042;29;20146;-77
2022/08/22 22:09:06;;;;;;;6.35;3.20;;;;;;;23.97;47.12;101481.88;4898468;29;20126;-77
2022/08/22 22:11:31;;;;;;;8.80;3.42;;;;;;;23.97;47.08;101476.59;4881423;29;20052;-77
2022/08/22 22:13:57;;;;;;;8.82;2.95;;;;;;;23.98;46.72;101494.13;4882881;29;20119;-77
2022/08/22 22:18:53;;;;;;;7.88;3.17;;;;;;;23.98;46.51;101483.59;4914354;29;21239;-77
2022/08/22 22:21:19;;;;;;;5.90;2.88;;;;;;;24.01;46.84;101490.53;4869597;29;20067;-77
2022/08/22 22:23:45;;;;;;;8.18;3.28;;;;;;;23.99;46.85;101484.47;4882328;29;20047;-77
2022/08/22 22:26:11;;;;;;;8.25;3.20;;;;;;;23.99;46.86;101487.94;4888795;29;20072;-77
2022/08/22 22:28:39;;;;;;;6.45;2.83;;;;;;;23.98;46.41;101483.59;4895941;29;20088;-77
2022/08/22 22:31:05;;;;;;;8.15;3.00;;;;;;;23.98;46.44;101491.50;4915659;29;20052;-77
2022/08/22 22:33:34;;;;;;;6.45;2.80;;;;;;;23.99;46.32;101485.31;4897145;29;20059;-77
2022/08/22 22:36:07;;;;;;;6.97;3.13;;;;;;;24.01;46.28;101490.53;4915314;29;20048;-77
2022/08/22 22:38:32;;;;;;;5.88;2.88;;;;;;;24.01;46.36;101486.13;4898105;29;20052;-77
2022/08/22 22:40:58;;;;;;;5.75;2.97;;;;;;;24.01;46.62;101485.28;4891142;29;20507;-77
2022/08/22 22:43:23;;;;;;;5.03;2.88;;;;;;;24.01;46.54;101485.28;4854366;29;20056;-77
2022/08/22 22:45:48;;;;;;;8.18;2.85;;;;;;;23.99;46.51;101485.31;4808187;29;1109469;-77
2022/08/22 22:48:17;;;;;;;5.80;2.67;;;;;;;24.00;46.19;101487.06;4881789;29;20134;-77
2022/08/22 22:50:43;;;;;;;6.30;3.08;;;;;;;24.01;46.72;101493.16;4879340;29;20052;-76
2022/08/22 22:53:10;;;;;;;5.78;2.95;;;;;;;24.02;46.73;101495.78;4899368;29;20376;-76
2022/08/22 22:55:36;;;;;;;6.18;2.80;;;;;;;24.01;46.26;101491.41;4914634;29;20052;-77
2022/08/22 22:58:02;;;;;;;4.82;2.60;;;;;;;24.01;46.69;101491.41;4898529;29;20143;-77
2022/08/22 23:00:30;;;;;;;7.50;2.70;;;;;;;24.01;46.77;101488.78;4882498;29;20149;-77
2022/08/22 23:02:55;;;;;;;4.72;2.90;;;;;;;24.00;46.62;101487.06;4878598;29;20061;-77
2022/08/22 23:05:21;;;;;;;5.15;2.60;;;;;;;24.01;46.67;101487.91;4881554;29;20036;-77
2022/08/22 23:07:47;;;;;;;7.97;2.55;;;;;;;24.01;46.58;101496.66;4883920;29;20064;-76
2022/08/22 23:10:13;;;;;;;8.82;2.75;;;;;;;24.01;46.74;101491.41;4906888;29;20063;-78
2022/08/22 23:12:38;;;;;;;5.82;2.88;;;;;;;23.99;46.72;101493.22;4898701;29;20111;-78
2022/08/22 23:15:14;;;;;;;4.93;2.60;;;;;;;23.99;46.59;101484.47;4872005;29;20040;-79
2022/08/22 23:17:41;;;;;;;8.02;2.90;;;;;;;24.00;46.74;101480.94;4907783;29;20101;-78
2022/08/22 23:20:06;;;;;;;5.35;2.65;;;;;;;24.00;46.51;101480.94;4925580;29;20068;-77
2022/08/22 23:22:32;;;;;;;4.55;2.55;;;;;;;24.00;46.47;101484.44;4888397;29;20383;-78
2022/08/22 23:24:57;;;;;;;6.32;2.90;;;;;;;23.99;46.65;101481.84;4923286;29;20494;-78
2022/08/22 23:27:23;;;;;;;4.40;2.45;;;;;;;23.99;46.89;101476.56;4891158;29;20060;-78
2022/08/22 23:29:49;;;;;;;6.68;2.72;;;;;;;23.99;46.15;101476.56;4888162;29;20066;-78
2022/08/22 23:32:14;;;;;;;4.40;2.50;;;;;;;24.00;46.55;101473.06;4905778;29;20045;-78
2022/08/22 23:34:44;;;;;;;5.28;2.70;;;;;;;23.99;46.65;101471.31;4902731;29;20059;-78
2022/08/22 23:37:12;;;;;;;6.22;2.70;;;;;;;23.99;46.49;101482.69;4904653;29;20056;-78
2022/08/22 23:39:38;;;;;;;6.45;2.70;;;;;;;23.98;46.69;101483.59;4919952;29;20063;-78
2022/08/22 23:42:06;;;;;;;6.70;2.40;;;;;;;23.95;46.65;101478.44;4890480;29;20052;-78
2022/08/22 23:44:33;;;;;;;4.47;2.45;;;;;;;23.96;46.80;101476.66;4920148;29;20067;-78
2022/08/22 23:47:00;;;;;;;5.78;3.03;;;;;;;23.96;46.75;101480.16;4903719;29;20143;-78
2022/08/22 23:51:51;;;;;;;5.43;2.83;;;;;;;23.96;46.67;101476.66;4922487;29;20135;-78
2022/08/22 23:54:17;;;;;;;5.93;2.70;;;;;;;23.94;47.02;101471.44;4891627;29;20529;-77
2022/08/22 23:56:49;;;;;;;4.25;2.70;;;;;;;23.93;46.91;101469.72;4904527;29;20111;-77
2022/08/22 23:59:17;;;;;;;5.57;2.60;;;;;;;23.94;46.88;101474.06;4906401;29;20055;-78
